createdAt,value
2022-10-11T00:00:33.186Z,10.76
2022-10-11T00:01:33.259Z,10.75
2022-10-11T00:02:33.155Z,10.72
2022-10-11T00:03:33.150Z,10.73
2022-10-11T00:04:33.166Z,10.73
2022-10-11T00:05:33.127Z,10.75
2022-10-11T00:06:33.109Z,10.75
2022-10-11T00:07:33.085Z,10.76
2022-10-11T00:08:33.097Z,10.78
2022-10-11T00:09:33.067Z,10.81
2022-10-11T00:10:33.054Z,10.83
2022-10-11T00:11:33.026Z,10.84
2022-10-11T00:12:33.026Z,10.83
2022-10-11T00:13:32.998Z,10.87
2022-10-11T00:14:33.016Z,10.86
2022-10-11T00:15:32.976Z,10.86
2022-10-11T00:16:32.964Z,10.87
2022-10-11T00:17:32.968Z,10.90
2022-10-11T00:18:32.936Z,10.91
2022-10-11T00:19:32.934Z,10.93
2022-10-11T00:20:32.920Z,10.93
2022-10-11T00:21:32.896Z,10.94
2022-10-11T00:22:32.894Z,10.95
2022-10-11T00:23:32.867Z,10.98
2022-10-11T00:24:32.868Z,11.01
2022-10-11T00:25:32.844Z,11.03
2022-10-11T00:26:32.834Z,11.05
2022-10-11T00:27:32.816Z,11.06
2022-10-11T00:28:32.881Z,11.09
2022-10-11T00:29:32.795Z,11.12
2022-10-11T00:30:32.785Z,11.13
2022-10-11T00:31:35.645Z,11.13
2022-10-11T00:32:32.745Z,11.16
2022-10-11T00:33:32.734Z,11.16
2022-10-11T00:34:32.734Z,11.13
2022-10-11T00:35:32.712Z,11.13
2022-10-11T00:36:32.695Z,11.12
2022-10-11T00:37:32.677Z,11.13
2022-10-11T00:38:32.674Z,11.16
2022-10-11T00:39:32.674Z,11.17
2022-10-11T00:40:32.653Z,11.17
2022-10-11T00:41:32.635Z,11.21
2022-10-11T00:42:32.621Z,11.23
2022-10-11T00:43:32.604Z,11.27
2022-10-11T00:44:32.604Z,11.27
2022-10-11T00:45:32.576Z,11.28
2022-10-11T00:46:32.592Z,11.33
2022-10-11T00:47:32.550Z,11.33
2022-10-11T00:48:32.543Z,11.36
2022-10-11T00:49:32.533Z,11.41
2022-10-11T00:50:32.512Z,11.45
2022-10-11T00:51:32.696Z,11.46
2022-10-11T00:52:32.504Z,11.49
2022-10-11T00:53:32.475Z,11.56
2022-10-11T00:54:32.478Z,11.60
2022-10-11T00:55:32.535Z,11.64
2022-10-11T00:56:32.436Z,11.67
2022-10-11T00:57:32.414Z,11.67
2022-10-11T00:58:32.403Z,11.70
2022-10-11T00:59:32.401Z,11.72
2022-10-11T01:00:32.383Z,11.75
2022-10-11T01:01:32.410Z,11.79
2022-10-11T01:02:32.375Z,11.82
2022-10-11T01:03:32.346Z,11.87
2022-10-11T01:04:32.334Z,11.88
2022-10-11T01:05:32.314Z,11.90
2022-10-11T01:06:32.300Z,11.96
2022-10-11T01:07:32.302Z,11.98
2022-10-11T01:08:32.270Z,12.00
2022-10-11T01:09:32.272Z,12.01
2022-10-11T01:10:32.257Z,12.04
2022-10-11T01:11:32.223Z,12.05
2022-10-11T01:12:32.212Z,12.08
2022-10-11T01:13:32.201Z,12.08
2022-10-11T01:14:32.203Z,12.12
2022-10-11T01:15:32.173Z,12.12
2022-10-11T01:16:32.172Z,12.15
2022-10-11T01:17:32.154Z,12.15
2022-10-11T01:18:32.141Z,12.15
2022-10-11T01:19:32.175Z,12.16
2022-10-11T01:20:32.108Z,12.16
2022-10-11T01:21:32.099Z,12.18
2022-10-11T01:22:32.093Z,12.18
2022-10-11T01:23:32.070Z,12.19
2022-10-11T01:24:32.071Z,12.22
2022-10-11T01:25:32.042Z,12.21
2022-10-11T01:26:32.032Z,12.22
2022-10-11T01:27:32.023Z,12.21
2022-10-11T01:28:32.022Z,12.23
2022-10-11T01:29:32.000Z,12.23
2022-10-11T01:30:31.983Z,12.23
2022-10-11T01:31:31.964Z,12.23
2022-10-11T01:32:31.951Z,12.23
2022-10-11T01:33:31.940Z,12.22
2022-10-11T01:34:31.940Z,12.22
2022-10-11T01:35:31.910Z,12.19
2022-10-11T01:36:31.941Z,12.21
2022-10-11T01:37:32.601Z,12.19
2022-10-11T01:38:31.875Z,12.18
2022-10-11T01:39:31.861Z,12.18
2022-10-11T01:40:31.843Z,12.19
2022-10-11T01:41:31.839Z,12.16
2022-10-11T01:42:31.823Z,12.15
2022-10-11T01:43:31.800Z,12.16
2022-10-11T01:44:31.815Z,12.13
2022-10-11T01:45:31.770Z,12.13
2022-10-11T01:46:31.770Z,12.11
2022-10-11T01:47:31.774Z,12.11
2022-10-11T01:48:31.750Z,12.07
2022-10-11T01:49:31.726Z,12.04
2022-10-11T01:50:31.730Z,12.01
2022-10-11T01:51:31.709Z,12.01
2022-10-11T01:52:31.693Z,11.98
2022-10-11T01:53:31.691Z,11.96
2022-10-11T01:54:49.859Z,11.94
2022-10-11T01:55:32.671Z,11.90
2022-10-11T01:56:31.643Z,11.88
2022-10-11T01:57:31.612Z,11.85
2022-10-11T01:58:31.612Z,11.82
2022-10-11T01:59:31.593Z,11.81
2022-10-11T02:00:31.590Z,11.77
2022-10-11T02:01:31.643Z,11.75
2022-10-11T02:02:31.570Z,11.72
2022-10-11T02:03:31.549Z,11.70
2022-10-11T02:04:31.522Z,11.69
2022-10-11T02:05:31.509Z,11.67
2022-10-11T02:06:31.517Z,11.66
2022-10-11T02:07:31.483Z,11.64
2022-10-11T02:08:31.484Z,11.64
2022-10-11T02:09:31.460Z,11.63
2022-10-11T02:10:31.451Z,11.63
2022-10-11T02:11:31.435Z,11.60
2022-10-11T02:12:31.421Z,11.60
2022-10-11T02:13:31.409Z,11.60
2022-10-11T02:14:31.401Z,11.59
2022-10-11T02:15:31.370Z,11.57
2022-10-11T02:16:31.364Z,11.56
2022-10-11T02:17:31.360Z,11.53
2022-10-11T02:18:31.370Z,11.51
2022-10-11T02:19:31.321Z,11.49
2022-10-11T02:20:31.322Z,11.49
2022-10-11T02:21:31.308Z,11.51
2022-10-11T02:22:31.283Z,11.49
2022-10-11T02:23:31.300Z,11.49
2022-10-11T02:24:31.270Z,11.49
2022-10-11T02:25:31.240Z,11.49
2022-10-11T02:26:31.239Z,11.49
2022-10-11T02:27:31.213Z,11.51
2022-10-11T02:28:31.283Z,11.49
2022-10-11T02:29:31.189Z,11.49
2022-10-11T02:30:31.180Z,11.49
2022-10-11T02:31:31.169Z,11.53
2022-10-11T02:32:31.170Z,11.53
2022-10-11T02:33:31.140Z,11.54
2022-10-11T02:34:31.130Z,11.54
2022-10-11T02:35:31.109Z,11.54
2022-10-11T02:36:31.099Z,11.54
2022-10-11T02:37:31.080Z,11.56
2022-10-11T02:38:31.081Z,11.57
2022-10-11T02:39:31.059Z,11.57
2022-10-11T02:40:31.049Z,11.57
2022-10-11T02:41:31.028Z,11.56
2022-10-11T02:42:31.019Z,11.54
2022-10-11T02:43:31.008Z,11.54
2022-10-11T02:44:30.998Z,11.53
2022-10-11T02:45:30.977Z,11.53
2022-10-11T02:46:30.968Z,11.51
2022-10-11T02:47:30.957Z,11.49
2022-10-11T02:48:30.975Z,11.48
2022-10-11T02:49:30.921Z,11.45
2022-10-11T02:50:30.908Z,11.45
2022-10-11T02:51:30.907Z,11.42
2022-10-11T02:52:30.888Z,11.41
2022-10-11T02:53:30.886Z,11.38
2022-10-11T02:54:30.857Z,11.36
2022-10-11T02:55:30.846Z,11.35
2022-10-11T02:56:30.845Z,11.35
2022-10-11T02:57:30.817Z,11.33
2022-10-11T02:58:30.846Z,11.31
2022-10-11T02:59:30.786Z,11.31
2022-10-11T03:00:30.786Z,11.31
2022-10-11T03:01:30.833Z,11.28
2022-10-11T03:02:30.769Z,11.27
2022-10-11T03:03:30.742Z,11.26
2022-10-11T03:04:30.726Z,11.27
2022-10-11T03:05:30.731Z,11.24
2022-10-11T03:06:30.710Z,11.24
2022-10-11T03:07:30.681Z,11.24
2022-10-11T03:08:30.697Z,11.26
2022-10-11T03:09:30.656Z,11.26
2022-10-11T03:10:30.648Z,11.26
2022-10-11T03:11:30.631Z,11.24
2022-10-11T03:12:30.625Z,11.23
2022-10-11T03:13:30.606Z,11.21
2022-10-11T03:14:30.587Z,11.20
2022-10-11T03:15:30.593Z,11.19
2022-10-11T03:16:31.248Z,11.19
2022-10-11T03:17:36.723Z,11.17
2022-10-11T03:18:31.588Z,11.16
2022-10-11T03:19:30.520Z,11.13
2022-10-11T03:20:30.509Z,11.12
2022-10-11T03:21:30.496Z,11.12
2022-10-11T03:22:30.486Z,11.08
2022-10-11T03:23:30.476Z,11.09
2022-10-11T03:24:30.457Z,11.06
2022-10-11T03:25:30.436Z,11.02
2022-10-11T03:26:30.468Z,11.01
2022-10-11T03:27:30.433Z,10.98
2022-10-11T03:28:30.464Z,10.95
2022-10-11T03:29:30.387Z,10.93
2022-10-11T03:30:30.379Z,10.90
2022-10-11T03:31:30.366Z,10.90
2022-10-11T03:32:30.351Z,10.87
2022-10-11T03:33:30.337Z,10.83
2022-10-11T03:34:30.317Z,10.78
2022-10-11T03:35:30.353Z,10.73
2022-10-11T03:36:30.297Z,10.69
2022-10-11T03:37:30.290Z,10.65
2022-10-11T03:38:30.281Z,10.62
2022-10-11T03:39:30.258Z,10.55
2022-10-11T03:40:30.238Z,10.51
2022-10-11T03:41:30.225Z,10.44
2022-10-11T03:42:30.226Z,10.42
2022-10-11T03:43:30.202Z,10.35
2022-10-11T03:44:30.195Z,10.28
2022-10-11T03:45:30.174Z,10.20
2022-10-11T03:46:30.165Z,10.13
2022-10-11T03:47:30.173Z,10.04
2022-10-11T03:48:30.136Z,9.96
2022-10-11T03:49:30.128Z,9.89
2022-10-11T03:50:30.105Z,9.78
2022-10-11T03:51:30.085Z,9.71
2022-10-11T03:52:30.095Z,9.65
2022-10-11T03:53:30.063Z,9.58
2022-10-11T03:54:30.069Z,9.53
2022-10-11T03:55:30.053Z,9.48
2022-10-11T03:56:30.025Z,9.41
2022-10-11T03:57:30.030Z,9.34
2022-10-11T03:58:30.007Z,9.31
2022-10-11T03:59:29.992Z,9.24
2022-10-11T04:00:29.995Z,9.20
2022-10-11T04:01:29.965Z,9.16
2022-10-11T04:02:29.958Z,9.10
2022-10-11T04:03:29.956Z,9.04
2022-10-11T04:04:29.914Z,8.98
2022-10-11T04:05:29.911Z,8.94
2022-10-11T04:06:29.915Z,8.89
2022-10-11T04:07:29.884Z,8.83
2022-10-11T04:08:29.865Z,8.79
2022-10-11T04:09:29.852Z,8.73
2022-10-11T04:10:29.846Z,8.71
2022-10-11T04:11:29.820Z,8.68
2022-10-11T04:12:29.835Z,8.63
2022-10-11T04:13:29.797Z,8.58
2022-10-11T04:14:29.783Z,8.55
2022-10-11T04:15:29.772Z,8.49
2022-10-11T04:16:29.764Z,8.45
2022-10-11T04:17:29.764Z,8.40
2022-10-11T04:18:29.734Z,8.37
2022-10-11T04:19:29.740Z,8.32
2022-10-11T04:20:29.705Z,8.27
2022-10-11T04:21:29.694Z,8.21
2022-10-11T04:22:29.685Z,8.14
2022-10-11T04:23:29.674Z,8.12
2022-10-11T04:24:29.665Z,8.10
2022-10-11T04:25:29.641Z,8.09
2022-10-11T04:26:29.624Z,8.07
2022-10-11T04:27:29.623Z,8.09
2022-10-11T04:28:29.626Z,8.07
2022-10-11T04:29:32.517Z,8.02
2022-10-11T04:30:29.572Z,7.96
2022-10-11T04:31:29.572Z,7.89
2022-10-11T04:32:29.549Z,7.85
2022-10-11T04:33:29.532Z,7.79
2022-10-11T04:34:29.517Z,7.77
2022-10-11T04:35:29.527Z,7.69
2022-10-11T04:36:29.493Z,7.63
2022-10-11T04:37:29.485Z,7.55
2022-10-11T04:38:29.462Z,7.52
2022-10-11T04:39:29.452Z,7.47
2022-10-11T04:40:29.440Z,7.44
2022-10-11T04:41:29.441Z,7.41
2022-10-11T04:42:29.422Z,7.37
2022-10-11T04:43:29.401Z,7.36
2022-10-11T04:44:29.380Z,7.33
2022-10-11T04:45:29.375Z,7.29
2022-10-11T04:46:29.353Z,7.26
2022-10-11T04:47:29.352Z,7.24
2022-10-11T04:48:29.328Z,7.19
2022-10-11T04:49:29.341Z,7.16
2022-10-11T04:50:29.304Z,7.14
2022-10-11T04:51:29.320Z,7.11
2022-10-11T04:52:29.288Z,7.05
2022-10-11T04:53:29.260Z,7.04
2022-10-11T04:54:29.279Z,7.00
2022-10-11T04:55:29.241Z,6.99
2022-10-11T04:56:29.249Z,6.97
2022-10-11T04:57:29.248Z,6.96
2022-10-11T04:58:29.195Z,6.90
2022-10-11T04:59:29.181Z,6.86
2022-10-11T05:00:29.171Z,6.83
2022-10-11T05:01:29.168Z,6.79
2022-10-11T05:02:29.229Z,6.78
2022-10-11T05:03:29.129Z,6.75
2022-10-11T05:04:29.126Z,6.72
2022-10-11T05:05:29.122Z,6.69
2022-10-11T05:06:29.096Z,6.63
2022-10-11T05:07:29.079Z,6.61
2022-10-11T05:08:29.066Z,6.57
2022-10-11T05:09:29.049Z,6.54
2022-10-11T05:10:29.040Z,6.51
2022-10-11T05:11:29.047Z,6.46
2022-10-11T05:12:29.007Z,6.40
2022-10-11T05:13:28.997Z,6.38
2022-10-11T05:14:28.986Z,6.35
2022-10-11T05:15:28.969Z,6.33
2022-10-11T05:16:28.960Z,6.30
2022-10-11T05:17:28.947Z,6.24
2022-10-11T05:18:28.944Z,6.21
2022-10-11T05:19:28.926Z,6.17
2022-10-11T05:20:28.903Z,6.16
2022-10-11T05:21:28.901Z,6.16
2022-10-11T05:22:28.886Z,6.19
2022-10-11T05:23:28.897Z,6.17
2022-10-11T05:24:28.845Z,6.14
2022-10-11T05:25:28.836Z,6.11
2022-10-11T05:26:28.836Z,6.10
2022-10-11T05:27:28.816Z,6.08
2022-10-11T05:28:28.836Z,6.03
2022-10-11T05:29:28.787Z,6.01
2022-10-11T05:30:28.770Z,6.01
2022-10-11T05:31:28.773Z,5.99
2022-10-11T05:32:28.744Z,5.99
2022-10-11T05:33:28.734Z,5.98
2022-10-11T05:34:28.716Z,5.98
2022-10-11T05:35:28.705Z,5.99
2022-10-11T05:36:28.705Z,5.98
2022-10-11T05:37:28.684Z,5.95
2022-10-11T05:38:28.665Z,5.93
2022-10-11T05:39:28.654Z,5.93
2022-10-11T05:40:28.645Z,5.93
2022-10-11T05:41:28.662Z,5.93
2022-10-11T05:42:28.612Z,5.92
2022-10-11T05:43:28.614Z,5.90
2022-10-11T05:44:28.585Z,5.90
2022-10-11T05:45:28.573Z,5.90
2022-10-11T05:46:28.822Z,5.90
2022-10-11T05:47:28.553Z,5.92
2022-10-11T05:48:28.532Z,5.90
2022-10-11T05:49:28.530Z,5.88
2022-10-11T05:50:28.512Z,5.90
2022-10-11T05:51:28.510Z,5.90
2022-10-11T05:52:28.486Z,5.90
2022-10-11T05:53:28.481Z,5.92
2022-10-11T05:54:28.472Z,5.96
2022-10-11T05:55:28.449Z,5.99
2022-10-11T05:56:28.433Z,6.03
2022-10-11T05:57:28.413Z,6.11
2022-10-11T05:58:28.404Z,6.21
2022-10-11T05:59:28.392Z,6.32
2022-10-11T06:00:28.410Z,6.40
2022-10-11T06:01:28.442Z,6.45
2022-10-11T06:02:28.360Z,6.51
2022-10-11T06:03:28.342Z,6.57
2022-10-11T06:04:28.332Z,6.61
2022-10-11T06:05:28.313Z,6.64
2022-10-11T06:06:28.313Z,6.73
2022-10-11T06:07:28.288Z,6.81
2022-10-11T06:08:28.271Z,6.87
2022-10-11T06:09:28.271Z,6.93
2022-10-11T06:10:28.286Z,6.96
2022-10-11T06:11:28.261Z,7.00
2022-10-11T06:12:28.232Z,7.04
2022-10-11T06:13:28.215Z,7.05
2022-10-11T06:14:28.198Z,7.08
2022-10-11T06:15:28.180Z,7.09
2022-10-11T06:16:28.192Z,7.11
2022-10-11T06:17:28.150Z,7.15
2022-10-11T06:18:28.168Z,7.15
2022-10-11T06:19:28.130Z,7.18
2022-10-11T06:20:28.132Z,7.21
2022-10-11T06:21:28.117Z,7.23
2022-10-11T06:22:28.080Z,7.23
2022-10-11T06:23:28.088Z,7.24
2022-10-11T06:24:28.052Z,7.27
2022-10-11T06:25:28.052Z,7.30
2022-10-11T06:26:28.060Z,7.34
2022-10-11T06:27:28.019Z,7.37
2022-10-11T06:28:28.060Z,7.36
2022-10-11T06:29:28.000Z,7.37
2022-10-11T06:30:28.081Z,7.36
2022-10-11T06:31:27.981Z,7.37
2022-10-11T06:32:27.969Z,7.37
2022-10-11T06:33:27.941Z,7.39
2022-10-11T06:34:27.930Z,7.41
2022-10-11T06:35:27.918Z,7.42
2022-10-11T06:36:27.906Z,7.42
2022-10-11T06:37:27.888Z,7.45
2022-10-11T06:38:27.878Z,7.50
2022-10-11T06:39:27.869Z,7.50
2022-10-11T06:40:27.916Z,7.54
2022-10-11T06:41:27.845Z,7.55
2022-10-11T06:42:27.817Z,7.58
2022-10-11T06:43:27.808Z,7.63
2022-10-11T06:44:27.804Z,7.67
2022-10-11T06:45:27.787Z,7.70
2022-10-11T06:46:27.777Z,7.70
2022-10-11T06:47:27.755Z,7.74
2022-10-11T06:48:27.736Z,7.77
2022-10-11T06:49:27.749Z,7.79
2022-10-11T06:50:54.285Z,7.81
2022-10-11T06:51:28.705Z,7.84
2022-10-11T06:52:27.686Z,7.85
2022-10-11T06:53:27.676Z,7.88
2022-10-11T06:54:27.662Z,7.89
2022-10-11T06:55:27.659Z,7.94
2022-10-11T06:56:27.656Z,7.99
2022-10-11T06:57:27.622Z,8.02
2022-10-11T06:58:27.602Z,8.04
2022-10-11T06:59:27.595Z,8.07
2022-10-11T07:00:27.575Z,8.13
2022-10-11T07:01:27.642Z,8.17
2022-10-11T07:02:27.548Z,8.21
2022-10-11T07:03:27.544Z,8.25
2022-10-11T07:04:27.524Z,8.31
2022-10-11T07:05:27.513Z,8.39
2022-10-11T07:06:27.513Z,8.46
2022-10-11T07:07:27.503Z,8.57
2022-10-11T07:08:27.466Z,8.67
2022-10-11T07:09:27.466Z,8.80
2022-10-11T07:10:27.437Z,8.98
2022-10-11T07:11:27.445Z,9.24
2022-10-11T07:12:27.415Z,9.55
2022-10-11T07:13:27.415Z,10.06
2022-10-11T07:14:27.396Z,10.69
2022-10-11T07:15:27.386Z,11.33
2022-10-11T07:16:27.374Z,11.93
2022-10-11T07:17:27.396Z,12.43
2022-10-11T07:18:27.334Z,12.89
2022-10-11T07:19:27.330Z,13.32
2022-10-11T07:20:27.313Z,13.75
2022-10-11T07:21:27.304Z,14.05
2022-10-11T07:22:27.283Z,14.23
2022-10-11T07:23:27.283Z,14.38
2022-10-11T07:24:27.253Z,14.56
2022-10-11T07:25:27.254Z,14.74
2022-10-11T07:26:27.244Z,14.95
2022-10-11T07:27:27.214Z,15.18
2022-10-11T07:28:27.255Z,15.40
2022-10-11T07:29:27.194Z,15.64
2022-10-11T07:30:27.193Z,15.91
2022-10-11T07:31:27.165Z,16.16
2022-10-11T07:32:27.158Z,16.47
2022-10-11T07:33:27.154Z,16.78
2022-10-11T07:34:27.123Z,17.15
2022-10-11T07:35:27.123Z,17.55
2022-10-11T07:36:27.465Z,17.99
2022-10-11T07:37:27.096Z,18.41
2022-10-11T07:38:27.073Z,18.86
2022-10-11T07:39:27.057Z,19.27
2022-10-11T07:40:27.059Z,19.68
2022-10-11T07:41:27.024Z,20.07
2022-10-11T07:42:27.004Z,20.40
2022-10-11T07:43:27.003Z,20.72
2022-10-11T07:44:26.985Z,20.98
2022-10-11T07:45:26.984Z,21.26
2022-10-11T07:46:26.963Z,21.40
2022-10-11T07:47:26.963Z,21.56
2022-10-11T07:48:27.656Z,21.82
2022-10-11T07:49:26.978Z,22.01
2022-10-11T07:50:26.979Z,22.20
2022-10-11T07:51:26.904Z,22.39
2022-10-11T07:52:26.894Z,22.56
2022-10-11T07:53:26.905Z,22.66
2022-10-11T07:54:26.855Z,22.76
2022-10-11T07:55:26.865Z,22.89
2022-10-11T07:56:26.834Z,23.01
2022-10-11T07:57:26.844Z,23.09
2022-10-11T07:58:26.807Z,23.18
2022-10-11T07:59:26.794Z,23.19
2022-10-11T08:00:26.787Z,23.23
2022-10-11T08:01:26.911Z,23.26
2022-10-11T08:02:26.755Z,23.32
2022-10-11T08:03:26.785Z,23.37
2022-10-11T08:04:26.752Z,23.44
2022-10-11T08:05:26.746Z,23.57
2022-10-11T08:06:26.774Z,23.72
2022-10-11T08:07:26.712Z,23.87
2022-10-11T08:08:26.695Z,24.02
2022-10-11T08:09:26.705Z,24.18
2022-10-11T08:10:26.686Z,24.36
2022-10-11T08:11:26.647Z,24.51
2022-10-11T08:12:26.637Z,24.67
2022-10-11T08:13:26.616Z,24.84
2022-10-11T08:14:26.617Z,25.01
2022-10-11T08:15:26.662Z,25.22
2022-10-11T08:16:27.517Z,25.39
2022-10-11T08:17:26.596Z,25.51
2022-10-11T08:18:26.567Z,25.60
2022-10-11T08:19:26.567Z,25.67
2022-10-11T08:20:26.507Z,25.78
2022-10-11T08:21:26.528Z,25.86
2022-10-11T08:22:26.488Z,25.97
2022-10-11T08:23:26.478Z,26.04
2022-10-11T08:24:26.508Z,26.06
2022-10-11T08:25:26.643Z,26.09
2022-10-11T08:26:26.434Z,26.11
2022-10-11T08:27:26.430Z,26.16
2022-10-11T08:28:26.463Z,26.12
2022-10-11T08:29:26.407Z,26.21
2022-10-11T08:30:26.390Z,26.31
2022-10-11T08:31:26.375Z,26.39
2022-10-11T08:32:26.360Z,26.35
2022-10-11T08:33:26.394Z,26.41
2022-10-11T08:34:26.346Z,26.49
2022-10-11T08:35:26.357Z,26.53
2022-10-11T08:36:26.332Z,26.49
2022-10-11T08:37:26.293Z,26.56
2022-10-11T08:38:26.280Z,26.65
2022-10-11T08:39:26.279Z,26.75
2022-10-11T08:40:26.262Z,26.81
2022-10-11T08:41:26.250Z,26.83
2022-10-11T08:42:26.241Z,26.68
2022-10-11T08:43:26.217Z,26.60
2022-10-11T08:44:26.240Z,26.57
2022-10-11T08:45:26.180Z,26.54
2022-10-11T08:46:26.202Z,26.53
2022-10-11T08:47:26.160Z,26.53
2022-10-11T08:48:26.160Z,26.47
2022-10-11T08:49:26.172Z,26.39
2022-10-11T08:50:26.162Z,26.36
2022-10-11T08:51:26.101Z,26.39
2022-10-11T08:52:26.104Z,26.44
2022-10-11T08:53:26.082Z,26.51
2022-10-11T08:54:26.091Z,26.57
2022-10-11T08:55:26.072Z,26.64
2022-10-11T08:56:26.051Z,26.68
2022-10-11T08:57:26.033Z,26.73
2022-10-11T08:58:26.033Z,26.76
2022-10-11T08:59:26.026Z,26.68
2022-10-11T09:00:26.003Z,26.68
2022-10-11T09:01:26.047Z,26.71
2022-10-11T09:02:25.973Z,26.75
2022-10-11T09:03:25.959Z,26.66
2022-10-11T09:04:25.953Z,26.57
2022-10-11T09:05:25.923Z,26.47
2022-10-11T09:06:25.923Z,26.36
2022-10-11T09:07:25.896Z,26.36
2022-10-11T09:08:25.920Z,26.35
2022-10-11T09:09:25.884Z,26.21
2022-10-11T09:10:25.882Z,26.24
2022-10-11T09:11:25.856Z,26.21
2022-10-11T09:12:29.540Z,25.98
2022-10-11T09:13:26.834Z,25.86
2022-10-11T09:14:25.811Z,25.83
2022-10-11T09:15:25.795Z,25.83
2022-10-11T09:16:25.803Z,25.86
2022-10-11T09:17:25.773Z,25.91
2022-10-11T09:18:25.764Z,25.93
2022-10-11T09:19:25.753Z,25.86
2022-10-11T09:20:25.744Z,25.66
2022-10-11T09:21:25.716Z,25.56
2022-10-11T09:22:30.256Z,25.48
2022-10-11T09:23:26.706Z,25.39
2022-10-11T09:24:25.685Z,25.26
2022-10-11T09:25:25.674Z,25.11
2022-10-11T09:26:25.665Z,24.98
2022-10-11T09:27:43.674Z,24.98
2022-10-11T09:28:26.636Z,25.01
2022-10-11T09:29:25.624Z,24.84
2022-10-11T09:30:25.605Z,24.70
2022-10-11T09:31:25.607Z,24.68
2022-10-11T09:32:25.587Z,24.49
2022-10-11T09:33:25.566Z,24.31
2022-10-11T09:34:25.547Z,24.18
2022-10-11T09:35:25.548Z,24.23
2022-10-11T09:36:25.529Z,24.29
2022-10-11T09:37:25.527Z,24.36
2022-10-11T09:38:25.508Z,24.34
2022-10-11T09:39:25.484Z,24.39
2022-10-11T09:40:25.467Z,24.48
2022-10-11T09:41:25.467Z,24.55
2022-10-11T09:42:25.448Z,24.55
2022-10-11T09:43:25.447Z,24.45
2022-10-11T09:44:25.418Z,24.30
2022-10-11T09:45:25.419Z,24.19
2022-10-11T09:46:25.400Z,24.06
2022-10-11T09:47:25.418Z,24.06
2022-10-11T09:48:25.410Z,24.04
2022-10-11T09:49:25.361Z,23.81
2022-10-11T09:50:25.339Z,23.56
2022-10-11T09:51:25.337Z,23.21
2022-10-11T09:52:25.330Z,22.79
2022-10-11T09:53:25.326Z,22.42
2022-10-11T09:54:25.279Z,21.93
2022-10-11T09:55:25.269Z,21.46
2022-10-11T09:56:25.273Z,21.16
2022-10-11T09:57:25.242Z,20.98
2022-10-11T09:58:25.250Z,21.05
2022-10-11T09:59:25.211Z,21.22
2022-10-11T10:00:25.205Z,21.40
2022-10-11T10:01:25.277Z,21.53
2022-10-11T10:02:25.209Z,21.68
2022-10-11T10:03:25.177Z,21.83
2022-10-11T10:04:25.171Z,21.94
2022-10-11T10:05:25.157Z,21.94
2022-10-11T10:06:25.122Z,21.94
2022-10-11T10:07:25.141Z,22.01
2022-10-11T10:08:25.100Z,22.01
2022-10-11T10:09:25.080Z,22.05
2022-10-11T10:10:25.081Z,22.12
2022-10-11T10:11:25.063Z,22.20
2022-10-11T10:12:25.050Z,22.27
2022-10-11T10:13:25.039Z,22.31
2022-10-11T10:14:25.021Z,22.36
2022-10-11T10:15:25.004Z,22.44
2022-10-11T10:16:25.000Z,22.51
2022-10-11T10:17:24.973Z,22.60
2022-10-11T10:18:24.976Z,22.67
2022-10-11T10:19:24.951Z,22.66
2022-10-11T10:20:24.945Z,22.66
2022-10-11T10:21:24.929Z,22.63
2022-10-11T10:22:24.913Z,22.60
2022-10-11T10:23:24.903Z,22.39
2022-10-11T10:24:24.902Z,22.19
2022-10-11T10:25:24.862Z,21.89
2022-10-11T10:26:24.870Z,21.71
2022-10-11T10:27:24.865Z,21.51
2022-10-11T10:28:24.960Z,21.33
2022-10-11T10:29:24.832Z,21.18
2022-10-11T10:30:24.815Z,21.11
2022-10-11T10:31:24.796Z,21.06
2022-10-11T10:32:24.783Z,20.94
2022-10-11T10:33:24.773Z,20.87
2022-10-11T10:34:24.763Z,20.81
2022-10-11T10:35:24.742Z,20.87
2022-10-11T10:36:24.725Z,20.88
2022-10-11T10:37:24.722Z,20.85
2022-10-11T10:38:26.749Z,20.75
2022-10-11T10:39:24.691Z,20.60
2022-10-11T10:40:24.694Z,20.40
2022-10-11T10:41:24.656Z,20.23
2022-10-11T10:42:24.644Z,20.05
2022-10-11T10:43:24.656Z,19.90
2022-10-11T10:44:24.655Z,19.75
2022-10-11T10:45:24.649Z,19.58
2022-10-11T10:46:24.607Z,19.60
2022-10-11T10:47:24.582Z,19.60
2022-10-11T10:48:24.573Z,19.70
2022-10-11T10:49:51.922Z,19.82
2022-10-11T10:50:25.535Z,19.92
2022-10-11T10:51:24.524Z,19.92
2022-10-11T10:52:24.515Z,19.83
2022-10-11T10:53:24.503Z,19.72
2022-10-11T10:54:24.523Z,19.55
2022-10-11T10:55:24.474Z,19.40
2022-10-11T10:56:24.470Z,19.23
2022-10-11T10:57:24.454Z,19.05
2022-10-11T10:58:24.457Z,18.84
2022-10-11T10:59:24.423Z,18.64
2022-10-11T11:00:24.427Z,18.50
2022-10-11T11:01:24.433Z,18.57
2022-10-11T11:02:41.344Z,18.74
2022-10-11T11:03:25.367Z,18.97
2022-10-11T11:04:24.356Z,19.23
2022-10-11T11:05:24.339Z,19.40
2022-10-11T11:06:24.324Z,19.42
2022-10-11T11:07:24.324Z,19.31
2022-10-11T11:08:24.315Z,19.39
2022-10-11T11:09:24.276Z,19.49
2022-10-11T11:10:24.296Z,19.49
2022-10-11T11:11:24.255Z,19.47
2022-10-11T11:12:24.263Z,19.52
2022-10-11T11:13:24.254Z,19.60
2022-10-11T11:14:24.218Z,19.72
2022-10-11T11:15:31.309Z,19.89
2022-10-11T11:16:25.201Z,19.98
2022-10-11T11:17:24.213Z,20.07
2022-10-11T11:18:24.167Z,20.19
2022-10-11T11:19:24.160Z,20.31
2022-10-11T11:20:24.146Z,20.40
2022-10-11T11:21:24.140Z,20.50
2022-10-11T11:22:24.145Z,20.57
2022-10-11T11:23:24.112Z,20.54
2022-10-11T11:24:24.086Z,20.56
2022-10-11T11:25:24.085Z,20.60
2022-10-11T11:26:24.077Z,20.51
2022-10-11T11:27:24.095Z,20.30
2022-10-11T11:28:24.093Z,20.16
2022-10-11T11:29:24.017Z,20.19
2022-10-11T11:30:24.007Z,20.27
2022-10-11T11:31:23.986Z,20.30
2022-10-11T11:32:23.994Z,20.22
2022-10-11T11:33:23.956Z,20.15
2022-10-11T11:34:23.961Z,20.12
2022-10-11T11:35:23.938Z,20.05
2022-10-11T11:36:23.957Z,19.92
2022-10-11T11:37:23.916Z,19.80
2022-10-11T11:38:27.240Z,19.62
2022-10-11T11:39:24.897Z,19.43
2022-10-11T11:40:23.875Z,19.25
2022-10-11T11:41:23.867Z,19.09
2022-10-11T11:42:23.857Z,19.07
2022-10-11T11:43:23.826Z,19.13
2022-10-11T11:44:27.269Z,19.25
2022-10-11T11:45:23.812Z,19.35
2022-10-11T11:46:23.807Z,19.46
2022-10-11T11:47:23.775Z,19.49
2022-10-11T11:48:23.766Z,19.50
2022-10-11T11:49:23.747Z,19.53
2022-10-11T11:50:23.738Z,19.64
2022-10-11T11:51:26.497Z,19.76
2022-10-11T11:52:23.707Z,19.87
2022-10-11T11:53:23.699Z,19.90
2022-10-11T11:54:23.699Z,19.94
2022-10-11T11:55:23.669Z,19.89
2022-10-11T11:56:23.678Z,19.94
2022-10-11T11:57:23.638Z,19.98
2022-10-11T11:58:23.639Z,19.94
2022-10-11T11:59:23.636Z,19.92
2022-10-11T12:00:23.608Z,19.97
2022-10-11T12:01:27.575Z,20.00
2022-10-11T12:02:24.731Z,20.01
2022-10-11T12:03:23.565Z,19.86
2022-10-11T12:04:23.567Z,19.78
2022-10-11T12:05:23.538Z,19.80
2022-10-11T12:06:23.538Z,19.86
2022-10-11T12:07:23.511Z,19.83
2022-10-11T12:08:23.528Z,19.76
2022-10-11T12:09:23.497Z,19.62
2022-10-11T12:10:23.476Z,19.52
2022-10-11T12:11:23.468Z,19.43
2022-10-11T12:12:23.448Z,19.34
2022-10-11T12:13:23.430Z,19.27
2022-10-11T12:14:23.418Z,19.17
2022-10-11T12:15:23.410Z,19.12
2022-10-11T12:16:23.419Z,19.15
2022-10-11T12:17:23.390Z,19.25
2022-10-11T12:18:23.369Z,19.34
2022-10-11T12:19:23.349Z,19.45
2022-10-11T12:20:23.351Z,19.40
2022-10-11T12:21:23.329Z,19.38
2022-10-11T12:22:23.320Z,19.28
2022-10-11T12:23:23.300Z,19.12
2022-10-11T12:24:23.290Z,18.97
2022-10-11T12:25:23.268Z,18.93
2022-10-11T12:26:23.270Z,19.01
2022-10-11T12:27:23.249Z,19.10
2022-10-11T12:28:23.292Z,19.21
2022-10-11T12:29:28.233Z,19.31
2022-10-11T12:30:24.218Z,19.42
2022-10-11T12:31:23.190Z,19.43
2022-10-11T12:32:23.182Z,19.39
2022-10-11T12:33:23.160Z,19.30
2022-10-11T12:34:23.152Z,19.20
2022-10-11T12:35:23.148Z,19.10
2022-10-11T12:36:23.131Z,18.97
2022-10-11T12:37:23.110Z,18.83
2022-10-11T12:38:23.111Z,18.68
2022-10-11T12:39:23.105Z,18.62
2022-10-11T12:40:23.080Z,18.54
2022-10-11T12:41:23.060Z,18.47
2022-10-11T12:42:23.059Z,18.38
2022-10-11T12:43:23.037Z,18.35
2022-10-11T12:44:23.027Z,18.29
2022-10-11T12:45:23.020Z,18.25
2022-10-11T12:46:22.991Z,18.28
2022-10-11T12:47:22.989Z,18.32
2022-10-11T12:48:22.971Z,18.44
2022-10-11T12:49:22.957Z,18.53
2022-10-11T12:50:22.961Z,18.60
2022-10-11T12:51:22.932Z,18.68
2022-10-11T12:52:22.923Z,18.76
2022-10-11T12:53:22.904Z,18.86
2022-10-11T12:54:27.574Z,18.96
2022-10-11T12:55:23.890Z,19.05
2022-10-11T12:56:22.850Z,19.12
2022-10-11T12:57:22.851Z,19.17
2022-10-11T12:58:22.831Z,19.23
2022-10-11T12:59:22.821Z,19.25